createdAt,value
2019-01-09T00:02:47.890Z,73.08
2019-01-09T00:05:36.764Z,73.55
2019-01-09T00:08:25.698Z,73.88
2019-01-09T00:11:14.577Z,73.85
2019-01-09T00:14:03.814Z,74.14
2019-01-09T00:16:52.746Z,74.16
2019-01-09T00:19:41.643Z,74.42
2019-01-09T00:22:30.556Z,74.35
2019-01-09T00:25:19.418Z,74.41
2019-01-09T00:28:08.240Z,74.24
2019-01-09T00:30:50.168Z,74.24
2019-01-09T00:33:19.690Z,73.77
2019-01-09T00:36:08.598Z,73.81
2019-01-09T00:38:57.501Z,73.55
2019-01-09T00:41:46.373Z,73.99
2019-01-09T00:44:35.275Z,73.75
2019-01-09T00:47:24.175Z,73.53
2019-01-09T00:50:13.265Z,73.62
2019-01-09T00:52:55.078Z,73.78
2019-01-09T00:55:43.951Z,73.90
2019-01-09T00:58:32.894Z,74.24
2019-01-09T01:01:21.825Z,74.07
2019-01-09T01:04:31.573Z,74.04
2019-01-09T01:07:41.349Z,74.21
2019-01-09T01:11:08.863Z,74.30
2019-01-09T01:14:36.406Z,74.34
2019-01-09T01:18:03.900Z,74.20
2019-01-09T01:21:13.661Z,74.37
2019-01-09T01:24:41.181Z,74.43
2019-01-09T01:28:08.743Z,74.47
2019-01-09T01:31:36.331Z,74.45
2019-01-09T01:34:46.068Z,74.36
2019-01-09T01:37:55.861Z,74.38
2019-01-09T01:41:05.624Z,74.11
2019-01-09T01:44:15.414Z,74.31
2019-01-09T01:47:25.151Z,74.25
2019-01-09T01:50:52.666Z,74.57
2019-01-09T01:54:20.199Z,74.40
2019-01-09T01:57:47.689Z,73.99
2019-01-09T02:00:30.787Z,73.75
2019-01-09T02:03:40.556Z,73.85
2019-01-09T02:10:45.057Z,73.76
2019-01-09T02:13:54.803Z,73.42
2019-01-09T02:17:04.555Z,73.50
2019-01-09T02:20:14.272Z,73.37
2019-01-09T02:23:41.799Z,73.19
2019-01-09T02:27:09.326Z,73.33
2019-01-09T02:30:36.864Z,73.05
2019-01-09T02:33:25.700Z,73.14
2019-01-09T02:35:55.137Z,73.01
2019-01-09T02:38:43.977Z,72.78
2019-01-09T02:41:32.775Z,72.92
2019-01-09T02:44:21.695Z,72.81
2019-01-09T02:47:10.525Z,72.93
2019-01-09T02:49:59.382Z,73.10
2019-01-09T02:52:48.514Z,73.00
2019-01-09T02:55:37.379Z,73.17
2019-01-09T02:58:26.562Z,73.26
2019-01-09T03:01:15.389Z,73.20
2019-01-09T03:04:04.290Z,73.04
2019-01-09T03:06:53.212Z,72.88
2019-01-09T03:09:41.994Z,73.11
2019-01-09T03:12:30.837Z,73.51
2019-01-09T03:15:19.755Z,72.95
2019-01-09T03:18:01.667Z,72.71
2019-01-09T03:20:50.525Z,72.62
2019-01-09T03:23:39.353Z,72.45
2019-01-09T03:26:28.149Z,72.85
2019-01-09T03:29:17.063Z,72.98
2019-01-09T03:32:05.981Z,72.93
2019-01-09T03:34:54.883Z,73.17
2019-01-09T03:37:43.799Z,73.06
2019-01-09T03:40:32.731Z,73.16
2019-01-09T03:43:21.624Z,73.30
2019-01-09T03:46:10.478Z,73.60
2019-01-09T03:48:59.283Z,73.31
2019-01-09T03:51:48.111Z,73.58
2019-01-09T03:54:37.013Z,73.97
2019-01-09T03:57:06.470Z,73.36
2019-01-09T03:59:55.388Z,73.77
2019-01-09T04:02:44.199Z,73.40
2019-01-09T04:05:33.050Z,73.91
2019-01-09T04:08:02.550Z,73.91
2019-01-09T04:10:43.820Z,73.58
2019-01-09T04:13:32.668Z,73.24
2019-01-09T04:16:21.480Z,73.40
2019-01-09T04:19:03.552Z,73.33
2019-01-09T04:21:52.384Z,73.49
2019-01-09T04:24:40.897Z,73.44
2019-01-09T04:27:29.711Z,73.21
2019-01-09T04:30:18.549Z,73.12
2019-01-09T04:33:07.347Z,73.00
2019-01-09T04:35:56.269Z,72.86
2019-01-09T04:38:45.078Z,73.08
2019-01-09T04:41:33.978Z,73.12
2019-01-09T04:44:22.865Z,73.41
2019-01-09T04:47:11.696Z,73.54
2019-01-09T04:49:52.973Z,73.73
2019-01-09T04:52:41.745Z,73.27
2019-01-09T04:55:30.580Z,72.75
2019-01-09T04:58:19.389Z,72.41
2019-01-09T05:01:08.232Z,72.62
2019-01-09T05:03:57.134Z,72.55
2019-01-09T05:06:46.004Z,72.47
2019-01-09T05:09:34.778Z,72.50
2019-01-09T05:12:23.609Z,72.30
2019-01-09T05:15:12.439Z,72.39
2019-01-09T05:18:01.277Z,72.22
2019-01-09T05:20:50.129Z,72.52
2019-01-09T05:23:39.025Z,72.46
2019-01-09T05:26:27.843Z,72.42
2019-01-09T05:29:16.701Z,72.20
2019-01-09T05:32:05.518Z,72.62
2019-01-09T05:34:54.329Z,72.75
2019-01-09T05:37:43.183Z,72.90
2019-01-09T05:40:32.053Z,72.98
2019-01-09T05:43:13.584Z,73.38
2019-01-09T05:46:02.479Z,73.45
2019-01-09T05:48:32.014Z,73.89
2019-01-09T05:51:20.922Z,74.16
2019-01-09T05:54:09.709Z,74.20
2019-01-09T05:56:58.551Z,73.80
2019-01-09T05:59:47.392Z,74.23
2019-01-09T06:02:36.330Z,74.28
2019-01-09T06:05:15.777Z,74.38
2019-01-09T06:08:04.661Z,74.41
2019-01-09T06:10:53.480Z,74.23
2019-01-09T06:13:42.316Z,73.19
2019-01-09T06:16:31.124Z,71.37
2019-01-09T06:19:19.963Z,70.47
2019-01-09T06:22:08.454Z,69.08
2019-01-09T06:24:57.373Z,69.55
2019-01-09T06:27:46.235Z,69.67
2019-01-09T06:30:35.059Z,70.18
2019-01-09T06:33:23.891Z,70.61
2019-01-09T06:36:12.837Z,70.68
2019-01-09T06:39:01.650Z,70.90
2019-01-09T06:41:43.463Z,71.17
2019-01-09T06:44:12.932Z,71.45
2019-01-09T06:47:01.776Z,71.76
2019-01-09T06:49:50.586Z,71.98
2019-01-09T06:52:39.436Z,72.60
2019-01-09T06:55:28.270Z,72.98
2019-01-09T06:58:17.122Z,73.52
2019-01-09T07:00:59.051Z,73.89
2019-01-09T07:03:47.930Z,74.19
2019-01-09T07:06:36.808Z,74.49
2019-01-09T07:09:27.141Z,74.36
2019-01-09T07:11:56.615Z,73.98
2019-01-09T07:14:45.462Z,73.96
2019-01-09T07:17:34.389Z,73.90
2019-01-09T07:20:23.307Z,73.95
2019-01-09T07:23:11.776Z,73.98
2019-01-09T07:26:00.645Z,74.11
2019-01-09T07:28:49.487Z,74.06
2019-01-09T07:31:31.149Z,74.10
2019-01-09T07:34:00.603Z,74.22
2019-01-09T07:36:49.454Z,74.14
2019-01-09T07:39:38.258Z,74.24
2019-01-09T07:42:27.106Z,74.05
2019-01-09T07:44:56.582Z,73.96
2019-01-09T07:47:45.425Z,73.83
2019-01-09T07:50:34.232Z,73.71
2019-01-09T07:53:23.078Z,73.72
2019-01-09T07:56:11.943Z,73.67
2019-01-09T07:59:00.754Z,73.79
2019-01-09T08:01:49.675Z,73.84
2019-01-09T08:04:38.506Z,73.92
2019-01-09T08:07:27.342Z,74.01
2019-01-09T08:10:16.248Z,74.10
2019-01-09T08:13:05.087Z,74.16
2019-01-09T08:15:53.895Z,74.30
2019-01-09T08:18:42.770Z,74.36
2019-01-09T08:21:31.608Z,74.17
2019-01-09T08:24:39.513Z,74.09
2019-01-09T08:27:28.333Z,74.14
2019-01-09T08:30:17.317Z,74.09
2019-01-09T08:32:46.917Z,74.04
2019-01-09T08:35:29.042Z,73.71
2019-01-09T08:38:17.850Z,73.50
2019-01-09T08:41:06.983Z,73.63
2019-01-09T08:43:55.804Z,73.78
2019-01-09T08:46:44.696Z,73.71
2019-01-09T08:49:33.543Z,73.62
2019-01-09T08:52:22.395Z,73.72
2019-01-09T08:54:51.895Z,73.75
2019-01-09T08:57:40.739Z,73.37
2019-01-09T09:00:29.556Z,73.36
2019-01-09T09:03:18.537Z,73.26
2019-01-09T09:06:07.466Z,73.03
2019-01-09T09:08:57.899Z,73.08
2019-01-09T09:11:46.812Z,73.04
2019-01-09T09:14:35.749Z,73.13
2019-01-09T09:17:24.568Z,72.73
2019-01-09T09:20:13.749Z,72.77
2019-01-09T09:22:43.327Z,72.84
2019-01-09T09:25:32.250Z,72.83
2019-01-09T09:28:21.055Z,73.07
2019-01-09T09:31:09.909Z,72.96
2019-01-09T09:33:51.672Z,72.82
2019-01-09T09:36:21.164Z,72.86
2019-01-09T09:38:50.672Z,73.04
2019-01-09T09:41:39.511Z,72.97
2019-01-09T09:44:28.327Z,72.77
2019-01-09T09:47:17.217Z,73.18
2019-01-09T09:49:46.679Z,73.06
2019-01-09T09:52:28.115Z,72.91
2019-01-09T09:55:17.041Z,73.16
2019-01-09T09:58:06.167Z,73.38
2019-01-09T10:00:35.907Z,73.24
2019-01-09T10:03:24.755Z,72.84
2019-01-09T10:05:54.203Z,72.44
2019-01-09T10:08:29.230Z,72.28
2019-01-09T10:11:14.328Z,72.49
2019-01-09T10:13:43.980Z,72.57
2019-01-09T10:16:32.844Z,72.42
2019-01-09T10:19:21.699Z,72.06
2019-01-09T10:22:10.530Z,72.23
2019-01-09T10:24:59.355Z,72.43
2019-01-09T10:27:28.909Z,71.76
2019-01-09T10:30:37.061Z,71.35
2019-01-09T10:33:06.524Z,71.33
2019-01-09T10:35:55.451Z,71.07
2019-01-09T10:38:38.089Z,70.84
2019-01-09T10:41:08.026Z,70.30
2019-01-09T10:43:56.838Z,70.09
2019-01-09T10:46:47.487Z,70.77
2019-01-09T10:49:36.367Z,71.37
2019-01-09T10:52:06.073Z,70.10
2019-01-09T10:54:55.272Z,69.22
2019-01-09T10:57:24.747Z,70.34
2019-01-09T11:00:33.054Z,69.33
2019-01-09T11:03:21.879Z,69.78
2019-01-09T11:06:10.686Z,68.68
2019-01-09T11:08:52.680Z,69.30
2019-01-09T11:11:41.479Z,69.83
2019-01-09T11:14:30.347Z,69.16
2019-01-09T11:17:20.094Z,68.95
2019-01-09T11:19:49.637Z,67.56
2019-01-09T11:22:19.096Z,67.47
2019-01-09T11:25:28.860Z,67.30
2019-01-09T11:28:37.058Z,67.12
2019-01-09T11:31:46.807Z,66.12
2019-01-09T11:34:35.683Z,64.74
2019-01-09T11:37:17.500Z,63.82
2019-01-09T11:40:27.232Z,65.03
2019-01-09T11:43:16.041Z,64.18
2019-01-09T11:45:45.517Z,64.25
2019-01-09T11:48:46.690Z,63.72
2019-01-09T11:51:24.981Z,62.85
2019-01-09T11:53:54.480Z,62.66
2019-01-09T11:56:43.299Z,63.90
2019-01-09T11:59:32.132Z,63.74
2019-01-09T12:02:01.618Z,63.68
2019-01-09T12:04:50.441Z,62.07
2019-01-09T12:07:39.297Z,62.34
2019-01-09T12:10:30.285Z,61.10
2019-01-09T12:12:59.431Z,61.53
2019-01-09T12:16:09.184Z,61.17
2019-01-09T12:19:17.419Z,60.80
2019-01-09T12:22:06.248Z,60.06
2019-01-09T12:24:55.047Z,61.85
2019-01-09T12:30:39.674Z,60.07
2019-01-09T12:33:43.132Z,61.81
2019-01-09T12:36:19.032Z,61.39
2019-01-09T12:39:13.199Z,61.16
2019-01-09T12:41:58.654Z,60.79
2019-01-09T12:45:06.868Z,60.54
2019-01-09T12:47:36.496Z,60.47
2019-01-09T12:50:25.778Z,61.55
2019-01-09T12:53:14.752Z,61.92
2019-01-09T12:56:03.576Z,60.28
2019-01-09T12:58:52.471Z,61.06
2019-01-09T13:01:21.952Z,60.49
2019-01-09T13:04:10.825Z,60.72
2019-01-09T13:06:52.038Z,59.60
2019-01-09T13:09:22.312Z,58.62
2019-01-09T13:11:52.875Z,59.13
2019-01-09T13:14:41.716Z,57.78
2019-01-09T13:17:30.526Z,57.46
2019-01-09T13:20:19.418Z,57.84
2019-01-09T13:23:08.274Z,55.88
2019-01-09T13:25:57.144Z,57.13
2019-01-09T13:28:46.012Z,57.00
2019-01-09T13:31:34.799Z,57.02
2019-01-09T13:34:04.370Z,56.70
2019-01-09T13:36:33.834Z,56.74
2019-01-09T13:39:30.698Z,55.68
2019-01-09T13:41:55.306Z,57.21
2019-01-09T13:44:24.802Z,56.90
2019-01-09T13:46:54.283Z,57.38
2019-01-09T13:49:25.288Z,57.91
2019-01-09T13:52:14.164Z,57.17
2019-01-09T13:55:02.958Z,56.20
2019-01-09T13:57:51.790Z,57.00
2019-01-09T14:00:25.101Z,57.85
2019-01-09T14:03:13.943Z,57.98
2019-01-09T14:06:02.823Z,55.71
2019-01-09T14:08:51.626Z,56.56
2019-01-09T14:11:40.555Z,55.56
2019-01-09T14:14:29.423Z,55.69
2019-01-09T14:17:18.270Z,55.76
2019-01-09T14:20:28.018Z,55.82
2019-01-09T14:23:16.839Z,55.85
2019-01-09T14:26:05.737Z,56.32
2019-01-09T14:28:54.678Z,55.79
2019-01-09T14:31:43.508Z,55.48
2019-01-09T14:34:32.313Z,55.03
2019-01-09T14:37:01.815Z,54.93
2019-01-09T14:39:50.719Z,55.46
2019-01-09T14:42:39.723Z,56.37
2019-01-09T14:45:31.079Z,56.63
2019-01-09T14:48:19.948Z,55.57
2019-01-09T14:51:08.875Z,56.50
2019-01-09T14:53:57.683Z,56.17
2019-01-09T14:59:42.241Z,55.43
2019-01-09T15:02:31.050Z,54.99
2019-01-09T15:05:20.026Z,55.13
2019-01-09T15:08:08.933Z,55.24
2019-01-09T15:10:57.886Z,55.57
2019-01-09T15:13:46.662Z,55.71
2019-01-09T15:16:35.496Z,56.55
2019-01-09T15:19:24.374Z,56.80
2019-01-09T15:22:13.238Z,55.05
2019-01-09T15:24:42.747Z,54.65
2019-01-09T15:27:31.616Z,55.46
2019-01-09T15:30:43.710Z,54.77
2019-01-09T15:33:32.501Z,54.64
2019-01-09T15:36:21.353Z,56.12
2019-01-09T15:39:03.305Z,55.40
2019-01-09T15:41:32.776Z,55.68
2019-01-09T15:47:17.573Z,55.90
2019-01-09T15:50:27.285Z,55.14
2019-01-09T15:53:16.164Z,55.35
2019-01-09T15:56:05.133Z,55.78
2019-01-09T15:58:53.970Z,54.71
2019-01-09T16:04:38.546Z,53.93
2019-01-09T16:07:08.121Z,54.72
2019-01-09T16:09:57.231Z,54.13
2019-01-09T16:12:47.680Z,53.99
2019-01-09T16:15:36.558Z,54.51
2019-01-09T16:18:46.059Z,55.47
2019-01-09T16:21:34.892Z,55.69
2019-01-09T16:24:23.720Z,55.99
2019-01-09T16:27:12.554Z,56.21
2019-01-09T16:29:42.041Z,56.04
2019-01-09T16:32:30.915Z,56.81
2019-01-09T16:35:20.737Z,56.60
2019-01-09T16:38:05.878Z,57.02
2019-01-09T16:40:54.782Z,56.91
2019-01-09T16:43:43.606Z,56.97
2019-01-09T16:46:32.513Z,57.03
2019-01-09T16:49:27.879Z,56.75
2019-01-09T16:52:11.918Z,57.46
2019-01-09T16:55:00.751Z,56.81
2019-01-09T16:57:51.779Z,57.74
2019-01-09T17:01:02.569Z,57.60
2019-01-09T17:03:51.423Z,57.24
2019-01-09T17:07:01.117Z,56.95
2019-01-09T17:09:49.991Z,57.18
2019-01-09T17:12:38.873Z,57.30
2019-01-09T17:15:20.541Z,57.58
2019-01-09T17:18:09.469Z,57.17
2019-01-09T17:20:39.066Z,57.40
2019-01-09T17:23:27.876Z,57.26
2019-01-09T17:26:36.228Z,57.21
2019-01-09T17:29:26.543Z,56.72
2019-01-09T17:31:56.051Z,57.22
2019-01-09T17:35:05.583Z,57.07
2019-01-09T17:37:54.498Z,57.12
2019-01-09T17:40:43.330Z,57.83
2019-01-09T17:43:32.182Z,57.14
2019-01-09T17:46:21.039Z,57.24
2019-01-09T17:49:09.947Z,57.92
2019-01-09T17:51:58.870Z,57.81
2019-01-09T17:54:47.721Z,57.76
2019-01-09T17:57:36.561Z,57.96
2019-01-09T18:00:46.413Z,57.34
2019-01-09T18:03:28.542Z,57.41
2019-01-09T18:06:17.352Z,57.47
2019-01-09T18:09:27.183Z,57.38
2019-01-09T18:12:16.035Z,57.96
2019-01-09T18:15:25.829Z,58.08
2019-01-09T18:18:14.752Z,58.35
2019-01-09T18:20:44.311Z,58.13
2019-01-09T18:23:34.952Z,57.88
2019-01-09T18:26:23.746Z,57.91
2019-01-09T18:28:53.409Z,58.41
2019-01-09T18:32:03.195Z,58.48
2019-01-09T18:34:52.405Z,58.74
2019-01-09T18:38:02.159Z,58.75
2019-01-09T18:41:29.708Z,59.19
2019-01-09T18:44:42.330Z,59.46
2019-01-09T18:48:09.954Z,58.85
2019-01-09T18:51:41.485Z,58.92
2019-01-09T18:54:22.854Z,59.34
2019-01-09T18:56:52.496Z,60.05
2019-01-09T18:59:41.383Z,60.27
2019-01-09T19:02:30.351Z,59.96
2019-01-09T19:04:59.847Z,59.76
2019-01-09T19:07:48.733Z,59.27
2019-01-09T19:10:39.184Z,59.78
2019-01-09T19:13:28.107Z,60.18
2019-01-09T19:16:17.132Z,60.29
2019-01-09T19:19:06.114Z,60.14
2019-01-09T19:21:35.749Z,59.96
2019-01-09T19:24:24.784Z,60.12
2019-01-09T19:27:13.755Z,59.79
2019-01-09T19:29:43.455Z,59.03
2019-01-09T19:32:32.395Z,59.01
2019-01-09T19:35:21.351Z,58.83
2019-01-09T19:38:10.289Z,58.23
2019-01-09T19:40:59.771Z,58.69
2019-01-09T19:46:46.122Z,58.87
2019-01-09T19:49:36.926Z,58.61
2019-01-09T19:52:25.948Z,58.50
2019-01-09T19:55:15.108Z,57.98
2019-01-09T19:58:04.147Z,57.88
2019-01-09T20:00:53.715Z,58.07
2019-01-09T20:03:42.547Z,57.56
2019-01-09T20:06:31.558Z,57.63
2019-01-09T20:09:01.131Z,58.86
2019-01-09T20:11:50.159Z,58.70
2019-01-09T20:14:39.171Z,58.65
2019-01-09T20:17:21.152Z,59.01
2019-01-09T20:20:29.420Z,59.18
2019-01-09T20:23:18.483Z,58.91
2019-01-09T20:26:07.722Z,59.14
2019-01-09T20:28:56.619Z,58.51
2019-01-09T20:31:45.550Z,58.73
2019-01-09T20:34:34.447Z,58.88
2019-01-09T20:37:23.399Z,59.26
2019-01-09T20:40:33.202Z,59.47
2019-01-09T20:43:22.177Z,59.53
2019-01-09T20:46:11.075Z,59.88
2019-01-09T20:48:59.992Z,59.84
2019-01-09T20:51:42.023Z,59.15
2019-01-09T20:54:31.063Z,59.31
2019-01-09T20:57:19.973Z,59.07
2019-01-09T21:00:28.762Z,59.20
2019-01-09T21:03:38.493Z,58.97
2019-01-09T21:06:20.425Z,59.57
2019-01-09T21:09:09.383Z,59.54
2019-01-09T21:11:58.213Z,59.76
2019-01-09T21:14:47.135Z,59.55
2019-01-09T21:17:36.099Z,59.76
2019-01-09T21:20:25.094Z,59.93
2019-01-09T21:23:14.003Z,60.21
2019-01-09T21:26:02.982Z,59.94
2019-01-09T21:28:51.922Z,60.13
2019-01-09T21:31:40.779Z,60.39
2019-01-09T21:34:31.655Z,60.72
2019-01-09T21:37:20.456Z,60.08
2019-01-09T21:40:29.285Z,59.47
2019-01-09T21:43:18.268Z,59.32
2019-01-09T21:46:07.157Z,59.29
2019-01-09T21:48:56.050Z,58.82
2019-01-09T21:51:44.947Z,58.54
2019-01-09T21:54:33.788Z,58.68
2019-01-09T21:57:22.667Z,58.79
2019-01-09T22:00:32.514Z,58.48
2019-01-09T22:03:21.365Z,58.44
2019-01-09T22:06:02.943Z,58.84
2019-01-09T22:08:51.779Z,58.81
2019-01-09T22:11:40.675Z,58.85
2019-01-09T22:14:29.528Z,58.70
2019-01-09T22:17:18.346Z,58.95
2019-01-09T22:20:28.087Z,58.42
2019-01-09T22:23:16.944Z,58.36
2019-01-09T22:26:05.952Z,59.06
2019-01-09T22:28:35.460Z,59.21
2019-01-09T22:31:24.381Z,58.75
2019-01-09T22:34:13.170Z,58.35
2019-01-09T22:37:01.997Z,58.82
2019-01-09T22:39:43.751Z,58.48
2019-01-09T22:42:32.699Z,59.17
2019-01-09T22:45:21.609Z,58.63
2019-01-09T22:48:10.473Z,58.48
2019-01-09T22:50:59.273Z,58.98
2019-01-09T22:53:47.800Z,58.62
2019-01-09T22:56:36.620Z,59.03
2019-01-09T22:59:25.468Z,58.76
2019-01-09T23:02:14.568Z,58.96
2019-01-09T23:05:03.402Z,59.19
2019-01-09T23:07:52.325Z,59.25
2019-01-09T23:10:41.278Z,59.06
2019-01-09T23:13:30.166Z,58.87
2019-01-09T23:16:19.019Z,59.15
2019-01-09T23:19:08.016Z,58.76
2019-01-09T23:21:56.809Z,58.80
2019-01-09T23:24:45.658Z,58.95
2019-01-09T23:27:34.536Z,59.48
2019-01-09T23:30:26.443Z,59.12
2019-01-09T23:33:15.331Z,59.31
2019-01-09T23:39:12.489Z,59.63
2019-01-09T23:42:01.383Z,59.27
2019-01-09T23:44:50.244Z,59.61
2019-01-09T23:47:39.187Z,59.80
2019-01-09T23:50:28.045Z,59.66
2019-01-09T23:53:16.959Z,59.92
2019-01-09T23:55:46.448Z,60.02
2019-01-09T23:58:35.255Z,59.94
